Time;durP1;ratioP1;P1;durP2;ratioP2;P2;SDS_P1;SDS_P2;PMS_P1;PMS_P2;Temp;Humidity;BMP_temperature;BMP_pressure;BME280_temperature;BME280_humidity;BME280_pressure;Samples;Min_cycle;Max_cycle;Signal;HPM_P1;HPM_P2
2021/12/07 00:01:28;;;;;;;64.83;58.03;;;-0.50;99.90;;;;;;5093590;28;20308;-75
2021/12/07 00:04:17;;;;;;;64.13;57.57;;;-0.40;99.90;;;;;;5099349;27;20365;-75
2021/12/07 00:07:08;;;;;;;63.70;57.43;;;-0.80;99.90;;;;;;5095411;28;20221;-75
2021/12/07 00:09:57;;;;;;;64.53;58.00;;;-0.80;99.90;;;;;;5094775;28;20237;-74
2021/12/07 00:12:46;;;;;;;64.10;57.80;;;-0.70;99.90;;;;;;5090163;27;20264;-76
2021/12/07 00:15:36;;;;;;;66.17;59.37;;;-0.80;99.90;;;;;;5089896;27;20223;-78
2021/12/07 00:18:27;;;;;;;64.47;58.27;;;-0.90;99.90;;;;;;5090170;28;21115;-76
2021/12/07 00:21:17;;;;;;;66.67;59.87;;;-0.90;99.90;;;;;;5093793;28;20347;-77
2021/12/07 00:24:07;;;;;;;66.47;59.80;;;-0.60;99.90;;;;;;5093612;28;20687;-75
2021/12/07 00:26:58;;;;;;;69.70;62.33;;;-0.60;99.90;;;;;;5093547;28;20357;-76
2021/12/07 00:29:47;;;;;;;63.87;57.07;;;-0.60;99.90;;;;;;5093090;28;20306;-75
2021/12/07 00:32:41;;;;;;;65.00;58.50;;;-0.90;99.90;;;;;;5093464;27;20307;-74
2021/12/07 00:35:34;;;;;;;66.27;59.20;;;-0.90;99.90;;;;;;5095354;27;20249;-76
2021/12/07 00:38:26;;;;;;;66.33;59.27;;;-0.90;99.90;;;;;;5093943;28;21485;-76
2021/12/07 00:41:15;;;;;;;64.53;57.70;;;-0.90;99.90;;;;;;5094398;28;20608;-75
2021/12/07 00:44:04;;;;;;;67.93;60.70;;;-0.80;99.90;;;;;;5095021;28;20244;-76
2021/12/07 00:46:54;;;;;;;70.90;62.97;;;-0.90;99.90;;;;;;5092982;27;20265;-77
2021/12/07 00:49:44;;;;;;;69.40;62.03;;;-0.80;99.90;;;;;;5093197;28;20225;-75
2021/12/07 00:52:34;;;;;;;63.03;56.23;;;-0.60;99.90;;;;;;5092934;28;20622;-75
2021/12/07 00:55:27;;;;;;;67.87;60.87;;;-0.70;99.90;;;;;;5093262;28;20295;-75
2021/12/07 00:58:21;;;;;;;69.17;61.97;;;-0.60;99.90;;;;;;5093310;28;20227;-76
2021/12/07 01:01:16;;;;;;;68.87;62.00;;;-0.70;99.90;;;;;;5093544;28;20575;-76
2021/12/07 01:04:06;;;;;;;68.10;61.13;;;-0.80;99.90;;;;;;5092896;28;20215;-75
2021/12/07 01:07:06;;;;;;;70.10;61.00;;;-0.90;99.90;;;;;;5098605;28;20238;-75
2021/12/07 01:25:31;;;;;;;72.37;64.20;;;-1.00;99.90;;;;;;5090769;28;20342;-76
2021/12/07 01:28:25;;;;;;;69.33;60.77;;;-0.90;99.90;;;;;;5095892;28;20243;-73
2021/12/07 01:31:20;;;;;;;72.00;64.13;;;-0.90;99.90;;;;;;5092052;28;20703;-74
2021/12/07 01:34:27;;;;;;;75.07;66.90;;;-0.90;99.90;;;;;;5095952;28;20233;-74
2021/12/07 01:37:31;;;;;;;76.00;65.27;;;-1.00;99.90;;;;;;5092273;28;20644;-76
2021/12/07 01:43:51;;;;;;;74.23;63.63;;;-0.90;99.90;;;;;;5091729;27;20591;-76
2021/12/07 01:47:19;;;;;;;73.23;63.40;;;-0.90;99.90;;;;;;5091370;28;20234;-76
2021/12/07 01:50:32;;;;;;;81.10;66.50;;;-0.90;99.90;;;;;;5095454;28;20238;-77
2021/12/07 01:59:34;;;;;;;84.70;70.20;;;-0.80;99.90;;;;;;5094579;27;20227;-73
2021/12/07 02:02:25;;;;;;;84.27;68.53;;;-0.70;99.90;;;;;;5101119;27;20286;-74
2021/12/07 02:05:15;;;;;;;78.57;65.67;;;-0.90;99.90;;;;;;5096429;28;20224;-73
2021/12/07 02:08:05;;;;;;;77.83;66.93;;;-0.80;99.90;;;;;;5095267;28;20227;-73
2021/12/07 02:10:59;;;;;;;84.50;70.50;;;-0.80;99.90;;;;;;5097873;27;21570;-74
2021/12/07 02:14:16;;;;;;;94.73;74.63;;;-0.70;99.90;;;;;;5095488;28;20579;-73
2021/12/07 02:17:12;;;;;;;95.33;75.30;;;-0.50;99.90;;;;;;5091119;28;20357;-73
2021/12/07 02:20:05;;;;;;;84.03;71.23;;;-0.40;99.90;;;;;;5103920;27;20231;-72
2021/12/07 02:22:55;;;;;;;82.80;68.77;;;-0.40;99.90;;;;;;5097837;28;20217;-71
2021/12/07 02:25:45;;;;;;;80.20;67.90;;;-0.50;99.90;;;;;;5107529;27;20222;-73
2021/12/07 02:28:38;;;;;;;76.70;61.77;;;-0.60;99.90;;;;;;5099201;27;20275;-72
2021/12/07 02:31:27;;;;;;;82.33;68.23;;;-0.60;99.90;;;;;;5099780;28;20235;-74
2021/12/07 02:34:17;;;;;;;80.40;67.60;;;-0.50;99.90;;;;;;5099552;27;20227;-74
2021/12/07 02:37:06;;;;;;;82.93;68.03;;;-0.60;99.90;;;;;;5092211;28;20217;-75
2021/12/07 02:39:58;;;;;;;76.67;67.27;;;-0.70;99.90;;;;;;5100328;28;20232;-74
2021/12/07 02:42:47;;;;;;;83.20;65.40;;;-0.70;99.90;;;;;;5100241;28;20591;-74
2021/12/07 02:45:37;;;;;;;79.40;66.13;;;-0.70;99.90;;;;;;5098709;28;20212;-72
2021/12/07 02:48:25;;;;;;;78.37;68.93;;;-0.80;99.90;;;;;;5100981;27;20216;-75
2021/12/07 02:51:18;;;;;;;76.17;65.70;;;-0.80;99.90;;;;;;5096033;27;20352;-74
2021/12/07 02:54:08;;;;;;;76.83;66.80;;;-0.70;99.90;;;;;;5094326;27;20314;-74
2021/12/07 02:56:58;;;;;;;77.00;67.20;;;-0.60;99.90;;;;;;5094671;28;20250;-73
2021/12/07 02:59:57;;;;;;;74.50;66.53;;;-0.60;99.90;;;;;;5093896;28;20248;-74
2021/12/07 03:02:52;;;;;;;73.50;63.53;;;-0.60;99.90;;;;;;5099224;27;20219;-74
2021/12/07 03:05:54;;;;;;;76.23;66.77;;;-0.60;99.90;;;;;;5099545;28;20269;-75
2021/12/07 03:27:28;;;;;;;79.23;63.33;;;-0.70;99.90;;;;;;5096452;28;20223;-74
2021/12/07 03:30:20;;;;;;;84.13;64.00;;;-0.70;99.90;;;;;;5091621;27;20230;-75
2021/12/07 03:33:09;;;;;;;80.60;60.43;;;-0.80;99.90;;;;;;5108061;27;20699;-75
2021/12/07 03:35:58;;;;;;;82.03;62.27;;;-0.70;99.90;;;;;;5094788;27;20240;-74
2021/12/07 03:38:48;;;;;;;85.63;63.77;;;-0.70;99.90;;;;;;5092607;28;20696;-74
2021/12/07 03:41:37;;;;;;;84.10;68.10;;;-0.80;99.90;;;;;;5094012;28;20263;-74
2021/12/07 03:44:26;;;;;;;75.87;61.20;;;-0.60;99.90;;;;;;5096605;28;20230;-75
2021/12/07 03:47:17;;;;;;;82.87;65.20;;;-0.80;99.90;;;;;;5091117;28;20303;-75
2021/12/07 03:50:09;;;;;;;71.53;60.23;;;-0.90;99.90;;;;;;5092365;27;20213;-73
2021/12/07 03:52:58;;;;;;;68.50;58.67;;;-1.00;99.90;;;;;;5097256;27;20635;-74
2021/12/07 03:55:47;;;;;;;79.33;65.37;;;-0.80;99.90;;;;;;5094794;28;20232;-75
2021/12/07 03:58:37;;;;;;;79.43;62.73;;;-0.90;99.90;;;;;;5098946;28;20219;-75
2021/12/07 04:01:27;;;;;;;75.63;63.53;;;-0.80;99.90;;;;;;5095806;27;20312;-75
2021/12/07 04:04:20;;;;;;;77.13;63.13;;;-0.70;99.90;;;;;;5109194;27;20441;-75
2021/12/07 04:07:08;;;;;;;75.50;61.67;;;-0.80;99.90;;;;;;5092861;28;20251;-74
2021/12/07 04:09:57;;;;;;;68.50;61.10;;;-0.70;99.90;;;;;;5100863;27;20678;-73
2021/12/07 04:12:47;;;;;;;77.53;63.13;;;-0.80;99.90;;;;;;5100147;27;20224;-74
2021/12/07 04:15:36;;;;;;;73.70;59.10;;;-0.70;99.90;;;;;;5095496;28;20226;-73
2021/12/07 04:18:25;;;;;;;69.53;60.20;;;-0.80;99.90;;;;;;5095488;27;20221;-75
2021/12/07 04:21:16;;;;;;;72.90;61.90;;;-0.90;99.90;;;;;;5093378;27;20323;-75
2021/12/07 04:24:05;;;;;;;70.97;62.30;;;-0.80;99.90;;;;;;5094288;28;20576;-76
2021/12/07 04:26:54;;;;;;;69.43;61.13;;;-0.70;99.90;;;;;;5100130;27;20222;-76
2021/12/07 04:29:43;;;;;;;68.63;61.07;;;-1.00;99.90;;;;;;5096826;28;20225;-75
2021/12/07 04:32:31;;;;;;;72.97;61.70;;;-1.10;99.90;;;;;;5100218;27;20230;-74
2021/12/07 04:35:21;;;;;;;77.70;64.13;;;-1.10;99.90;;;;;;5098305;28;20323;-75
2021/12/07 04:38:11;;;;;;;73.43;63.40;;;-1.00;99.90;;;;;;5107609;27;20231;-77
2021/12/07 04:41:00;;;;;;;73.00;63.53;;;-0.90;99.90;;;;;;5094322;27;20208;-76
2021/12/07 04:43:49;;;;;;;72.63;60.37;;;-0.90;99.90;;;;;;5098933;28;20216;-76
2021/12/07 04:46:44;;;;;;;75.13;63.23;;;-1.10;99.90;;;;;;5097336;27;20230;-76
2021/12/07 04:49:56;;;;;;;76.17;65.37;;;-1.00;99.90;;;;;;5095254;28;20218;-75
2021/12/07 04:58:59;;;;;;;81.63;65.47;;;-0.90;99.90;;;;;;5090512;28;20239;-76
2021/12/07 05:01:48;;;;;;;73.33;62.10;;;-0.90;99.90;;;;;;5095463;28;20303;-75
2021/12/07 05:04:38;;;;;;;71.37;60.97;;;-0.90;99.90;;;;;;5097625;28;20235;-74
2021/12/07 05:07:32;;;;;;;73.87;62.33;;;-1.00;99.90;;;;;;5095911;28;20230;-75
2021/12/07 05:10:30;;;;;;;75.23;65.70;;;-0.90;99.90;;;;;;5097794;28;20231;-74
2021/12/07 05:13:27;;;;;;;75.87;63.10;;;-0.90;99.90;;;;;;5099281;28;20225;-74
2021/12/07 05:16:39;;;;;;;78.40;64.67;;;-0.90;99.90;;;;;;5096335;28;20364;-76
2021/12/07 05:26:10;;;;;;;77.00;62.37;;;-1.00;99.90;;;;;;5067663;28;20223;-75
2021/12/07 05:38:16;;;;;;;78.23;62.67;;;-0.70;99.90;;;;;;5099199;28;20216;-75
2021/12/07 05:41:07;;;;;;;73.43;62.77;;;-0.70;99.90;;;;;;5099910;28;20225;-76
2021/12/07 05:43:56;;;;;;;82.90;65.47;;;-0.70;99.90;;;;;;5099803;27;20738;-76
2021/12/07 05:46:46;;;;;;;74.23;64.37;;;-0.80;99.90;;;;;;5094988;28;20264;-76
2021/12/07 05:49:35;;;;;;;78.07;63.53;;;-0.90;99.90;;;;;;5095450;28;20273;-76
2021/12/07 05:52:24;;;;;;;73.67;64.50;;;-0.80;99.90;;;;;;5093974;28;20296;-75
2021/12/07 05:55:13;;;;;;;79.30;64.13;;;-0.80;99.90;;;;;;5095945;28;20738;-75
2021/12/07 05:58:03;;;;;;;75.47;64.33;;;-0.80;99.90;;;;;;5095384;28;20713;-77
2021/12/07 06:00:57;;;;;;;82.40;66.43;;;-0.80;99.90;;;;;;5089219;28;20223;-77
2021/12/07 06:03:48;;;;;;;78.77;63.97;;;-0.80;99.90;;;;;;5094454;28;20714;-77
2021/12/07 06:06:37;;;;;;;81.67;65.23;;;-0.70;99.90;;;;;;5090695;28;20222;-77
2021/12/07 06:09:29;;;;;;;79.37;66.93;;;-0.60;99.90;;;;;;5091102;28;20703;-77
2021/12/07 06:12:18;;;;;;;72.40;62.50;;;-0.90;99.90;;;;;;5092604;28;20225;-77
2021/12/07 06:15:08;;;;;;;70.03;59.63;;;-0.90;99.90;;;;;;5093590;28;20235;-77
2021/12/07 06:17:57;;;;;;;74.90;64.87;;;-0.80;99.90;;;;;;5092576;28;20234;-75
2021/12/07 06:20:48;;;;;;;74.57;64.30;;;-0.90;99.90;;;;;;5096061;28;20326;-76
2021/12/07 06:23:37;;;;;;;74.07;62.80;;;-0.80;99.90;;;;;;5094245;28;20590;-76
2021/12/07 06:26:26;;;;;;;71.40;63.53;;;-0.70;99.90;;;;;;5095324;28;20225;-76
2021/12/07 06:29:15;;;;;;;72.23;62.93;;;-0.80;99.90;;;;;;5098051;28;20232;-78
2021/12/07 06:32:05;;;;;;;73.20;64.53;;;-0.90;99.90;;;;;;5093934;28;20282;-76
2021/12/07 06:34:54;;;;;;;69.73;62.17;;;-0.90;99.90;;;;;;5098101;28;20703;-76
2021/12/07 06:37:45;;;;;;;70.43;62.13;;;-0.90;99.90;;;;;;5101359;28;20281;-74
2021/12/07 06:40:38;;;;;;;73.57;63.00;;;-0.90;99.90;;;;;;5097782;27;20277;-75
2021/12/07 06:43:27;;;;;;;73.17;62.97;;;-0.70;99.90;;;;;;5095227;27;20309;-76
2021/12/07 06:46:17;;;;;;;73.30;59.47;;;-1.10;99.90;;;;;;5091986;27;21556;-75
2021/12/07 06:49:06;;;;;;;68.33;60.63;;;-1.00;99.90;;;;;;5096008;27;20256;-76
2021/12/07 06:51:55;;;;;;;70.77;62.50;;;-0.80;99.90;;;;;;5094638;28;20641;-75
2021/12/07 06:54:45;;;;;;;65.37;58.30;;;-0.80;99.90;;;;;;5097853;28;20256;-75
2021/12/07 06:57:35;;;;;;;72.03;63.07;;;-0.80;99.90;;;;;;5108815;27;20218;-75
2021/12/07 07:00:24;;;;;;;66.40;59.67;;;-0.80;99.90;;;;;;5099578;28;20243;-75
2021/12/07 07:03:13;;;;;;;61.97;55.77;;;-0.80;99.90;;;;;;5100652;27;20232;-76
2021/12/07 07:06:03;;;;;;;65.27;58.50;;;-1.00;99.90;;;;;;5097123;27;20256;-75
2021/12/07 07:08:52;;;;;;;62.23;56.17;;;-0.80;99.90;;;;;;5097059;28;20276;-75
2021/12/07 07:11:42;;;;;;;62.13;56.37;;;-0.90;99.90;;;;;;5097381;28;20276;-77
2021/12/07 07:14:31;;;;;;;64.10;58.07;;;-0.80;99.90;;;;;;5095820;28;20228;-79
2021/12/07 07:17:20;;;;;;;59.93;54.43;;;-0.70;99.90;;;;;;5096903;28;20260;-75
2021/12/07 07:20:14;;;;;;;60.53;54.77;;;-1.10;99.90;;;;;;5094751;27;20219;-74
2021/12/07 07:23:04;;;;;;;57.20;52.10;;;-1.00;99.90;;;;;;5109261;27;20222;-72
2021/12/07 07:25:55;;;;;;;60.87;55.37;;;-1.10;99.90;;;;;;5094587;27;20213;-75
2021/12/07 07:28:45;;;;;;;60.30;54.80;;;-1.10;99.90;;;;;;5100761;28;20224;-71
2021/12/07 07:31:36;;;;;;;60.23;54.93;;;-1.00;99.90;;;;;;5093280;28;20223;-72
2021/12/07 07:34:26;;;;;;;60.63;55.23;;;-1.00;99.90;;;;;;5107204;27;20232;-70
2021/12/07 07:37:15;;;;;;;60.57;55.27;;;-0.90;99.90;;;;;;5092517;28;20220;-71
2021/12/07 07:40:04;;;;;;;61.27;55.53;;;-0.90;99.90;;;;;;5095197;27;20231;-69
2021/12/07 07:42:54;;;;;;;58.20;52.80;;;-0.80;99.90;;;;;;5096207;28;20617;-71
2021/12/07 07:46:04;;;;;;;58.23;52.77;;;-0.90;99.90;;;;;;5095186;27;20228;-72
2021/12/07 07:48:53;;;;;;;61.03;55.37;;;-1.10;99.90;;;;;;5093315;28;20255;-72
2021/12/07 07:51:41;;;;;;;60.33;54.73;;;-0.90;99.90;;;;;;5096254;27;20239;-70
2021/12/07 07:54:30;;;;;;;58.10;52.87;;;-0.70;99.90;;;;;;5108438;27;20530;-71
2021/12/07 07:57:19;;;;;;;59.67;54.17;;;-0.90;99.90;;;;;;5091373;28;20228;-71
2021/12/07 08:00:15;;;;;;;58.30;52.83;;;-1.00;99.90;;;;;;5081923;27;20612;-70
2021/12/07 08:03:05;;;;;;;58.93;53.63;;;-0.90;99.90;;;;;;5091875;28;20225;-71
2021/12/07 08:05:54;;;;;;;58.13;52.43;;;-1.00;99.90;;;;;;5090400;27;20244;-72
2021/12/07 08:08:46;;;;;;;59.20;53.53;;;-1.10;99.90;;;;;;5087763;27;20262;-74
2021/12/07 08:11:36;;;;;;;58.80;53.13;;;-1.20;99.90;;;;;;5091594;28;20638;-72
2021/12/07 08:14:25;;;;;;;60.83;54.67;;;-1.40;99.90;;;;;;5090401;28;20230;-72
2021/12/07 08:17:14;;;;;;;62.80;56.33;;;-1.10;99.90;;;;;;5093681;27;20219;-71
2021/12/07 08:20:06;;;;;;;62.20;56.27;;;-0.90;99.90;;;;;;5096364;27;20825;-71
2021/12/07 08:22:55;;;;;;;60.80;54.83;;;-0.80;99.90;;;;;;5093826;27;20410;-69
2021/12/07 08:25:46;;;;;;;62.47;56.10;;;-0.80;99.90;;;;;;5092391;28;20328;-73
2021/12/07 08:28:36;;;;;;;59.93;53.97;;;-0.70;99.90;;;;;;5095625;28;20344;-73
2021/12/07 08:31:26;;;;;;;61.27;55.33;;;-0.80;99.90;;;;;;5095664;27;20409;-72
2021/12/07 08:34:15;;;;;;;60.33;54.37;;;-0.70;99.90;;;;;;5096710;28;20242;-71
2021/12/07 08:37:05;;;;;;;59.47;53.83;;;-0.60;99.90;;;;;;5090940;27;20356;-69
2021/12/07 08:39:54;;;;;;;58.97;53.23;;;-0.60;99.90;;;;;;5097066;28;20231;-70
2021/12/07 08:42:42;;;;;;;59.77;53.70;;;-0.80;99.90;;;;;;5092141;28;20219;-70
2021/12/07 08:45:31;;;;;;;57.67;52.23;;;-0.90;99.90;;;;;;5094401;28;20281;-73
2021/12/07 08:48:21;;;;;;;60.20;54.43;;;-0.80;99.90;;;;;;5087004;27;20238;-74
2021/12/07 08:51:11;;;;;;;57.67;52.03;;;-1.00;99.90;;;;;;5088890;28;20345;-71
2021/12/07 08:54:18;;;;;;;62.37;56.13;;;-1.00;99.90;;;;;;5092341;27;20226;-70
2021/12/07 09:00:13;;;;;;;59.77;54.07;;;-1.00;99.90;;;;;;5090217;27;20643;-70
2021/12/07 09:03:02;;;;;;;60.00;53.77;;;-0.90;99.90;;;;;;5091358;28;20240;-72
2021/12/07 09:05:51;;;;;;;57.57;52.03;;;-0.90;99.90;;;;;;5091618;27;20218;-70
2021/12/07 09:08:41;;;;;;;59.47;53.43;;;-0.90;99.90;;;;;;5093389;27;20223;-72
2021/12/07 09:11:31;;;;;;;58.80;53.30;;;-0.70;99.90;;;;;;5092321;27;20310;-71
2021/12/07 09:14:20;;;;;;;56.33;50.63;;;-0.80;99.90;;;;;;5098162;27;20630;-71
2021/12/07 09:17:09;;;;;;;58.67;53.23;;;-0.70;99.90;;;;;;5092554;28;20220;-72
2021/12/07 09:19:57;;;;;;;57.73;52.33;;;-0.70;99.90;;;;;;5096041;27;20225;-71
2021/12/07 09:22:49;;;;;;;55.50;50.27;;;-0.90;99.90;;;;;;5095326;28;20291;-71
2021/12/07 09:25:38;;;;;;;57.90;51.93;;;-0.80;99.90;;;;;;5090847;28;20235;-70
2021/12/07 09:28:28;;;;;;;57.10;51.93;;;-0.80;99.90;;;;;;5094091;27;20598;-71
2021/12/07 09:31:18;;;;;;;56.73;51.60;;;-0.80;99.90;;;;;;5093633;27;20231;-71
2021/12/07 09:34:08;;;;;;;56.47;51.10;;;-0.80;99.90;;;;;;5094366;27;20615;-71
2021/12/07 09:36:56;;;;;;;57.53;51.93;;;-0.70;99.90;;;;;;5096465;27;20719;-71
2021/12/07 09:39:45;;;;;;;56.37;51.43;;;-0.60;99.90;;;;;;5095541;28;20284;-68
2021/12/07 09:42:34;;;;;;;56.63;51.50;;;-0.60;99.90;;;;;;5096307;28;20346;-70
2021/12/07 09:45:30;;;;;;;56.03;50.73;;;-0.60;99.90;;;;;;5096007;28;20730;-71
2021/12/07 09:48:25;;;;;;;58.37;53.17;;;-0.60;99.90;;;;;;5090204;28;20314;-69
2021/12/07 09:51:19;;;;;;;55.00;50.00;;;-0.70;99.90;;;;;;5108545;27;20281;-67
2021/12/07 09:54:09;;;;;;;56.97;51.80;;;-0.60;99.90;;;;;;5091720;28;20563;-70
2021/12/07 09:56:58;;;;;;;54.43;49.77;;;-0.50;99.90;;;;;;5092840;28;20422;-69
2021/12/07 09:59:50;;;;;;;56.87;51.97;;;-0.40;99.90;;;;;;5093801;28;20216;-71
2021/12/07 10:02:41;;;;;;;55.77;50.97;;;-0.60;99.90;;;;;;5091032;28;20223;-71
2021/12/07 10:05:34;;;;;;;56.33;51.47;;;-0.30;99.90;;;;;;5092683;28;20246;-70
2021/12/07 10:08:23;;;;;;;53.13;48.40;;;-0.30;99.90;;;;;;5093831;28;20221;-73
2021/12/07 10:11:13;;;;;;;53.00;48.50;;;-0.50;99.90;;;;;;5093446;28;20238;-72
2021/12/07 10:14:02;;;;;;;56.27;51.57;;;-0.70;99.90;;;;;;5090432;28;20231;-74
2021/12/07 10:16:51;;;;;;;53.77;49.57;;;-0.60;99.90;;;;;;5094415;28;20226;-72
2021/12/07 10:19:45;;;;;;;55.50;50.80;;;-0.50;99.90;;;;;;5095708;27;20242;-72
2021/12/07 10:22:35;;;;;;;54.40;49.53;;;-0.60;99.90;;;;;;5095900;27;20226;-71
2021/12/07 10:25:27;;;;;;;54.90;50.33;;;-0.50;99.90;;;;;;5097386;28;20232;-71
2021/12/07 10:28:27;;;;;;;53.40;49.07;;;-0.50;99.90;;;;;;5095495;28;20326;-72
2021/12/07 10:31:25;;;;;;;56.33;51.00;;;-0.60;99.90;;;;;;5098253;27;20718;-69
2021/12/07 10:34:17;;;;;;;54.10;49.80;;;-0.60;99.90;;;;;;5097218;27;20228;-70
2021/12/07 10:37:10;;;;;;;55.43;51.03;;;-0.60;99.90;;;;;;5097813;27;20220;-69
2021/12/07 10:39:58;;;;;;;55.10;50.00;;;-0.70;99.90;;;;;;5100003;27;20219;-68
2021/12/07 10:42:48;;;;;;;56.33;51.77;;;-0.50;99.90;;;;;;5096670;28;20228;-70
2021/12/07 10:45:37;;;;;;;55.83;51.17;;;-0.50;99.90;;;;;;5099420;27;20228;-71
2021/12/07 10:48:25;;;;;;;59.03;53.70;;;-0.40;99.90;;;;;;5096046;27;20233;-72
2021/12/07 10:51:14;;;;;;;58.17;52.80;;;-0.30;99.90;;;;;;5097266;28;20215;-71
2021/12/07 10:54:05;;;;;;;56.77;51.93;;;-0.60;99.90;;;;;;5095703;27;20337;-70
2021/12/07 10:56:55;;;;;;;56.67;51.80;;;-0.60;99.90;;;;;;5095648;28;20245;-70
2021/12/07 10:59:53;;;;;;;57.53;52.53;;;-0.50;99.90;;;;;;5095346;27;20309;-71
2021/12/07 11:02:44;;;;;;;55.00;50.40;;;-0.50;99.90;;;;;;5093301;28;20217;-87
2021/12/07 11:05:37;;;;;;;57.13;52.23;;;-0.60;99.90;;;;;;5099288;27;20229;-79
2021/12/07 11:08:33;;;;;;;57.03;52.37;;;-0.60;99.90;;;;;;5094569;27;20280;-81
2021/12/07 11:11:29;;;;;;;57.40;52.47;;;-0.40;99.90;;;;;;5099097;27;20230;-84
2021/12/07 11:14:21;;;;;;;56.93;52.00;;;-0.30;99.90;;;;;;5098932;28;20221;-82
2021/12/07 11:17:13;;;;;;;57.93;52.40;;;-0.40;99.90;;;;;;5098306;28;20532;-82
2021/12/07 11:20:05;;;;;;;58.70;53.80;;;-0.40;99.90;;;;;;5098766;28;20227;-83
2021/12/07 11:22:57;;;;;;;56.60;51.80;;;-0.30;99.90;;;;;;5101703;27;20221;-82
2021/12/07 11:32:09;;;;;;;55.43;50.73;;;-0.30;99.90;;;;;;5098600;27;20372;-80
2021/12/07 11:35:11;;;;;;;58.47;53.20;;;-0.10;99.90;;;;;;5101453;27;20233;-79
2021/12/07 11:38:02;;;;;;;59.43;54.13;;;0.00;99.90;;;;;;5100531;27;20221;-79
2021/12/07 11:40:50;;;;;;;60.00;54.50;;;-0.20;99.90;;;;;;5096387;28;20219;-78
2021/12/07 11:43:51;;;;;;;56.03;51.03;;;0.00;99.90;;;;;;5112671;28;20323;-84
2021/12/07 11:46:49;;;;;;;57.80;52.70;;;-0.30;99.90;;;;;;5101838;27;20226;-83
2021/12/07 11:49:39;;;;;;;59.80;54.40;;;-0.40;99.90;;;;;;5100901;27;20705;-82
2021/12/07 11:52:28;;;;;;;59.30;53.67;;;-0.30;99.90;;;;;;5096534;27;20228;-80
2021/12/07 11:55:17;;;;;;;56.93;51.30;;;-0.30;99.90;;;;;;5091861;27;20713;-77
2021/12/07 11:58:08;;;;;;;53.97;48.97;;;-0.40;99.90;;;;;;5098322;27;20300;-85
2021/12/07 12:00:58;;;;;;;48.77;44.20;;;-0.30;99.90;;;;;;5097218;28;20224;-72
2021/12/07 12:03:49;;;;;;;54.23;48.80;;;-0.50;99.90;;;;;;5099358;27;20227;-71
2021/12/07 12:06:41;;;;;;;55.43;50.20;;;-0.60;99.90;;;;;;5099857;27;20499;-71
2021/12/07 12:09:31;;;;;;;57.43;52.03;;;-0.40;99.90;;;;;;5093098;28;20829;-70
2021/12/07 12:12:29;;;;;;;57.07;51.60;;;-0.30;99.90;;;;;;5088953;27;20743;-73
2021/12/07 12:15:52;;;;;;;56.03;50.37;;;-0.40;99.90;;;;;;5091536;27;20620;-69
2021/12/07 12:18:57;;;;;;;55.27;50.43;;;-0.50;99.90;;;;;;5093190;28;20241;-70
2021/12/07 12:21:53;;;;;;;54.10;48.80;;;-0.50;99.90;;;;;;5092420;27;20223;-68
2021/12/07 12:24:48;;;;;;;59.70;53.50;;;-0.40;99.90;;;;;;5094169;28;20231;-70
2021/12/07 12:27:38;;;;;;;55.80;50.60;;;-0.50;99.90;;;;;;5093319;27;20219;-69
2021/12/07 12:30:30;;;;;;;56.70;51.20;;;-0.50;99.90;;;;;;5097784;28;20906;-67
2021/12/07 12:33:18;;;;;;;57.73;52.00;;;-0.60;99.90;;;;;;5094614;28;20676;-65
2021/12/07 12:36:09;;;;;;;55.57;50.47;;;-0.50;99.90;;;;;;5087936;27;20215;-69
2021/12/07 12:39:06;;;;;;;58.87;53.17;;;-0.50;99.90;;;;;;5093065;27;20726;-69
2021/12/07 12:42:00;;;;;;;60.40;54.77;;;-0.80;99.90;;;;;;5095080;27;20235;-71
2021/12/07 12:44:56;;;;;;;58.67;53.17;;;-0.50;99.90;;;;;;5098872;28;20356;-71
2021/12/07 12:47:45;;;;;;;59.93;54.23;;;-0.60;99.90;;;;;;5093663;27;20228;-68
2021/12/07 12:50:36;;;;;;;59.83;53.47;;;-0.60;99.90;;;;;;5105613;27;20277;-69
2021/12/07 12:53:30;;;;;;;61.07;55.00;;;-0.80;99.90;;;;;;5096338;27;20231;-69
2021/12/07 12:56:23;;;;;;;61.37;55.00;;;-0.60;99.90;;;;;;5093073;28;20228;-69
2021/12/07 12:59:13;;;;;;;59.17;53.37;;;-0.60;99.90;;;;;;5098252;27;20223;-69
2021/12/07 13:02:02;;;;;;;62.77;56.40;;;-0.70;99.90;;;;;;5096492;27;20793;-69
2021/12/07 13:05:04;;;;;;;62.57;56.30;;;-0.70;99.90;;;;;;5091542;27;20219;-70
2021/12/07 13:08:16;;;;;;;57.87;52.57;;;-0.50;99.90;;;;;;5093984;27;20230;-69
2021/12/07 13:11:06;;;;;;;58.73;52.40;;;-0.60;99.90;;;;;;5092264;28;20219;-70
2021/12/07 13:13:55;;;;;;;57.70;52.20;;;-0.80;99.90;;;;;;5092581;28;20318;-70
2021/12/07 13:16:49;;;;;;;57.40;51.80;;;-0.70;99.90;;;;;;5092688;28;20231;-69
2021/12/07 13:20:16;;;;;;;58.33;52.77;;;-0.80;99.90;;;;;;5094826;28;20243;-68
2021/12/07 13:23:09;;;;;;;56.63;51.43;;;-0.80;99.90;;;;;;5092228;28;20218;-69
2021/12/07 13:25:58;;;;;;;56.27;51.13;;;-0.70;99.90;;;;;;5089484;28;20230;-70
2021/12/07 13:29:02;;;;;;;58.53;53.17;;;-0.60;99.90;;;;;;5093212;28;20231;-71
2021/12/07 13:31:53;;;;;;;53.57;48.90;;;-0.70;99.90;;;;;;5087411;28;20227;-69
2021/12/07 13:34:42;;;;;;;54.97;50.00;;;-0.80;99.90;;;;;;5092590;28;20252;-70
2021/12/07 13:37:48;;;;;;;53.23;48.83;;;-0.80;99.90;;;;;;5093192;28;20230;-70
2021/12/07 13:40:37;;;;;;;53.80;49.33;;;-0.70;99.90;;;;;;5091871;28;20224;-68
2021/12/07 13:43:31;;;;;;;54.90;50.53;;;-0.90;99.90;;;;;;5095646;28;20229;-73
2021/12/07 13:46:27;;;;;;;52.03;47.83;;;-0.80;99.90;;;;;;5094941;28;20227;-68
2021/12/07 13:49:16;;;;;;;51.73;47.07;;;-0.70;99.90;;;;;;5092556;28;20318;-70
2021/12/07 13:52:11;;;;;;;54.80;50.33;;;-0.70;99.90;;;;;;5094155;28;20241;-71
2021/12/07 13:55:02;;;;;;;54.00;49.50;;;-0.80;99.90;;;;;;5087794;28;20663;-69
2021/12/07 13:57:53;;;;;;;53.37;48.03;;;-0.90;99.90;;;;;;5092512;28;20810;-69
2021/12/07 14:00:42;;;;;;;53.97;49.47;;;-0.90;99.90;;;;;;5093742;28;20225;-70
2021/12/07 14:03:32;;;;;;;53.57;49.10;;;-0.90;99.90;;;;;;5093884;28;20227;-68
2021/12/07 14:06:21;;;;;;;54.90;50.33;;;-0.80;99.90;;;;;;5096004;28;20661;-68
2021/12/07 14:09:11;;;;;;;55.23;50.30;;;-0.90;99.90;;;;;;5091592;28;20315;-69
2021/12/07 14:12:01;;;;;;;54.03;49.47;;;-0.90;99.90;;;;;;5091172;28;20310;-68
2021/12/07 14:14:50;;;;;;;55.00;50.80;;;-0.80;99.90;;;;;;5094635;28;20952;-68
2021/12/07 14:17:40;;;;;;;51.03;47.13;;;-0.80;99.90;;;;;;5095292;28;20225;-68
2021/12/07 14:20:39;;;;;;;52.53;48.30;;;-1.00;99.90;;;;;;5095248;28;20224;-69
2021/12/07 14:23:31;;;;;;;54.40;50.30;;;-0.90;99.90;;;;;;5087922;28;20227;-69
2021/12/07 14:26:27;;;;;;;50.50;46.67;;;-0.70;99.90;;;;;;5093321;28;20228;-69
2021/12/07 14:29:19;;;;;;;50.63;46.83;;;-0.70;99.90;;;;;;5088908;27;20244;-68
2021/12/07 14:32:10;;;;;;;50.27;46.37;;;-1.00;99.90;;;;;;5094904;27;20306;-70
2021/12/07 14:35:04;;;;;;;48.90;45.37;;;-1.00;99.90;;;;;;5102910;27;20711;-69
2021/12/07 14:37:55;;;;;;;50.80;47.03;;;-1.10;99.90;;;;;;5095412;28;20217;-68
2021/12/07 14:40:45;;;;;;;49.43;45.53;;;-1.00;99.90;;;;;;5092283;28;20210;-68
2021/12/07 14:43:33;;;;;;;50.30;46.50;;;-1.00;99.90;;;;;;5093099;28;20273;-70
2021/12/07 14:46:25;;;;;;;52.43;48.47;;;-0.90;99.90;;;;;;5090350;28;20594;-67
2021/12/07 14:49:15;;;;;;;52.00;47.90;;;-0.90;99.90;;;;;;5089458;28;20280;-70
2021/12/07 14:52:09;;;;;;;51.97;47.93;;;-1.00;99.90;;;;;;5095362;28;20545;-68
2021/12/07 14:55:02;;;;;;;49.57;45.33;;;-0.80;99.90;;;;;;5095817;28;20253;-68
2021/12/07 14:57:50;;;;;;;48.73;45.43;;;-0.90;99.90;;;;;;5094593;28;20587;-70
2021/12/07 15:00:39;;;;;;;50.73;47.00;;;-0.90;99.90;;;;;;5098811;28;20238;-67
2021/12/07 15:03:36;;;;;;;47.93;44.60;;;-1.00;99.90;;;;;;5091731;28;20222;-70
2021/12/07 15:06:29;;;;;;;50.50;46.87;;;-1.10;99.90;;;;;;5094804;28;20234;-70
2021/12/07 15:09:19;;;;;;;52.87;49.07;;;-1.10;99.90;;;;;;5096954;27;20227;-69
2021/12/07 15:12:14;;;;;;;48.27;44.60;;;-1.00;99.90;;;;;;5096930;27;20224;-69
2021/12/07 15:15:04;;;;;;;47.63;44.33;;;-1.00;99.90;;;;;;5095449;27;20735;-70
2021/12/07 15:17:53;;;;;;;47.80;44.33;;;-0.90;99.90;;;;;;5094716;28;20237;-68
2021/12/07 15:20:42;;;;;;;47.57;44.03;;;-1.00;99.90;;;;;;5096109;28;20351;-68
2021/12/07 15:23:31;;;;;;;45.03;41.93;;;-0.80;99.90;;;;;;5097419;27;20228;-68
2021/12/07 15:26:22;;;;;;;46.70;43.50;;;-0.90;99.90;;;;;;5100103;27;20445;-69
2021/12/07 15:29:15;;;;;;;45.60;42.30;;;-1.00;99.90;;;;;;5097783;27;21125;-69
2021/12/07 15:32:06;;;;;;;46.57;43.47;;;-1.00;99.90;;;;;;5097593;27;20233;-71
2021/12/07 15:34:55;;;;;;;44.47;41.50;;;-0.90;99.90;;;;;;5089958;27;20222;-71
2021/12/07 15:37:44;;;;;;;47.33;44.20;;;-1.20;99.90;;;;;;5096955;28;20604;-70
2021/12/07 15:40:32;;;;;;;47.60;44.40;;;-1.10;99.90;;;;;;5086493;28;20268;-69
2021/12/07 15:43:23;;;;;;;48.40;44.93;;;-1.00;99.90;;;;;;5087147;27;20220;-70
2021/12/07 15:46:21;;;;;;;45.93;42.63;;;-1.00;99.90;;;;;;5088638;27;20284;-68
2021/12/07 15:49:10;;;;;;;44.70;41.80;;;-1.00;99.90;;;;;;5095134;28;20232;-70